sensor_id;sensor_type;location;lat;lon;timestamp;P1;durP1;ratioP1;P2;durP2;ratioP2
71091;SDS011;58751;50.708;7.134;2023-05-15T00:01:05;4.97;;;4.50;;
71091;SDS011;58751;50.708;7.134;2023-05-15T00:03:30;4.30;;;3.90;;
71091;SDS011;58751;50.708;7.134;2023-05-15T00:05:55;4.17;;;3.70;;
71091;SDS011;58751;50.708;7.134;2023-05-15T00:08:20;4.10;;;3.57;;
71091;SDS011;58751;50.708;7.134;2023-05-15T00:10:46;3.47;;;3.20;;
71091;SDS011;58751;50.708;7.134;2023-05-15T00:13:11;3.50;;;2.90;;
71091;SDS011;58751;50.708;7.134;2023-05-15T00:15:36;3.67;;;3.37;;
71091;SDS011;58751;50.708;7.134;2023-05-15T00:18:03;3.70;;;2.90;;
71091;SDS011;58751;50.708;7.134;2023-05-15T00:20:28;3.20;;;3.00;;
71091;SDS011;58751;50.708;7.134;2023-05-15T00:22:53;3.77;;;3.10;;
71091;SDS011;58751;50.708;7.134;2023-05-15T00:25:18;3.93;;;3.53;;
71091;SDS011;58751;50.708;7.134;2023-05-15T00:27:44;3.30;;;3.10;;
71091;SDS011;58751;50.708;7.134;2023-05-15T00:30:09;4.27;;;3.87;;
71091;SDS011;58751;50.708;7.134;2023-05-15T00:32:35;3.93;;;3.70;;
71091;SDS011;58751;50.708;7.134;2023-05-15T00:35:01;4.00;;;3.30;;
71091;SDS011;58751;50.708;7.134;2023-05-15T00:37:26;3.78;;;3.35;;
71091;SDS011;58751;50.708;7.134;2023-05-15T00:39:52;3.37;;;3.00;;
71091;SDS011;58751;50.708;7.134;2023-05-15T00:42:17;4.30;;;4.00;;
71091;SDS011;58751;50.708;7.134;2023-05-15T00:44:42;5.13;;;3.40;;
71091;SDS011;58751;50.708;7.134;2023-05-15T00:47:08;5.43;;;3.97;;
71091;SDS011;58751;50.708;7.134;2023-05-15T00:49:34;3.67;;;3.45;;
71091;SDS011;58751;50.708;7.134;2023-05-15T00:52:01;3.70;;;3.40;;
71091;SDS011;58751;50.708;7.134;2023-05-15T00:54:27;4.00;;;3.70;;
71091;SDS011;58751;50.708;7.134;2023-05-15T00:56:52;4.80;;;3.80;;
71091;SDS011;58751;50.708;7.134;2023-05-15T00:59:20;3.90;;;3.60;;
71091;SDS011;58751;50.708;7.134;2023-05-15T01:01:46;4.28;;;3.88;;
71091;SDS011;58751;50.708;7.134;2023-05-15T01:04:11;4.80;;;4.10;;
71091;SDS011;58751;50.708;7.134;2023-05-15T01:06:37;4.13;;;3.83;;
71091;SDS011;58751;50.708;7.134;2023-05-15T01:09:03;4.90;;;4.57;;
71091;SDS011;58751;50.708;7.134;2023-05-15T01:11:29;3.83;;;3.53;;
71091;SDS011;58751;50.708;7.134;2023-05-15T01:13:55;4.33;;;3.80;;
71091;SDS011;58751;50.708;7.134;2023-05-15T01:16:20;6.07;;;4.73;;
71091;SDS011;58751;50.708;7.134;2023-05-15T01:18:45;4.30;;;3.90;;
71091;SDS011;58751;50.708;7.134;2023-05-15T01:24:07;4.35;;;3.95;;
71091;SDS011;58751;50.708;7.134;2023-05-15T01:26:45;4.47;;;4.07;;
71091;SDS011;58751;50.708;7.134;2023-05-15T01:29:19;3.80;;;3.50;;
71091;SDS011;58751;50.708;7.134;2023-05-15T01:31:48;4.88;;;3.45;;
71091;SDS011;58751;50.708;7.134;2023-05-15T01:34:14;4.72;;;4.43;;
71091;SDS011;58751;50.708;7.134;2023-05-15T01:36:42;4.50;;;3.33;;
71091;SDS011;58751;50.708;7.134;2023-05-15T01:39:09;4.13;;;3.83;;
71091;SDS011;58751;50.708;7.134;2023-05-15T01:41:35;6.60;;;4.50;;
71091;SDS011;58751;50.708;7.134;2023-05-15T01:44:04;3.90;;;3.70;;
71091;SDS011;58751;50.708;7.134;2023-05-15T01:46:32;4.75;;;4.35;;
71091;SDS011;58751;50.708;7.134;2023-05-15T01:48:59;4.68;;;4.28;;
71091;SDS011;58751;50.708;7.134;2023-05-15T01:51:24;4.85;;;4.45;;
71091;SDS011;58751;50.708;7.134;2023-05-15T01:53:50;6.53;;;4.50;;
71091;SDS011;58751;50.708;7.134;2023-05-15T01:56:16;4.77;;;4.47;;
71091;SDS011;58751;50.708;7.134;2023-05-15T01:58:42;4.80;;;4.40;;
71091;SDS011;58751;50.708;7.134;2023-05-15T02:01:07;8.77;;;5.00;;
71091;SDS011;58751;50.708;7.134;2023-05-15T02:03:34;9.90;;;5.23;;
71091;SDS011;58751;50.708;7.134;2023-05-15T02:06:00;5.10;;;4.60;;
71091;SDS011;58751;50.708;7.134;2023-05-15T02:08:25;4.50;;;4.20;;
71091;SDS011;58751;50.708;7.134;2023-05-15T02:10:51;4.63;;;4.23;;
71091;SDS011;58751;50.708;7.134;2023-05-15T02:13:17;8.33;;;5.43;;
71091;SDS011;58751;50.708;7.134;2023-05-15T02:15:42;4.40;;;4.00;;
71091;SDS011;58751;50.708;7.134;2023-05-15T02:18:07;5.13;;;4.70;;
71091;SDS011;58751;50.708;7.134;2023-05-15T02:20:34;6.23;;;5.73;;
71091;SDS011;58751;50.708;7.134;2023-05-15T02:22:59;6.65;;;5.28;;
71091;SDS011;58751;50.708;7.134;2023-05-15T02:25:26;5.53;;;4.97;;
71091;SDS011;58751;50.708;7.134;2023-05-15T02:27:55;7.10;;;5.63;;
71091;SDS011;58751;50.708;7.134;2023-05-15T02:30:25;6.28;;;5.32;;
71091;SDS011;58751;50.708;7.134;2023-05-15T02:32:53;5.82;;;5.25;;
71091;SDS011;58751;50.708;7.134;2023-05-15T02:35:20;5.65;;;5.20;;
71091;SDS011;58751;50.708;7.134;2023-05-15T02:37:51;7.03;;;5.90;;
71091;SDS011;58751;50.708;7.134;2023-05-15T02:40:17;6.68;;;6.07;;
71091;SDS011;58751;50.708;7.134;2023-05-15T02:42:44;7.13;;;6.53;;
71091;SDS011;58751;50.708;7.134;2023-05-15T02:45:10;6.90;;;6.20;;
71091;SDS011;58751;50.708;7.134;2023-05-15T02:47:36;7.05;;;5.63;;
71091;SDS011;58751;50.708;7.134;2023-05-15T02:50:02;6.00;;;5.40;;
71091;SDS011;58751;50.708;7.134;2023-05-15T02:52:28;6.65;;;5.82;;
71091;SDS011;58751;50.708;7.134;2023-05-15T02:54:54;7.00;;;6.40;;
71091;SDS011;58751;50.708;7.134;2023-05-15T02:57:19;7.57;;;6.53;;
71091;SDS011;58751;50.708;7.134;2023-05-15T02:59:45;11.50;;;7.83;;
71091;SDS011;58751;50.708;7.134;2023-05-15T03:02:10;8.83;;;7.97;;
71091;SDS011;58751;50.708;7.134;2023-05-15T03:04:35;7.87;;;7.03;;
71091;SDS011;58751;50.708;7.134;2023-05-15T03:07:00;10.20;;;9.10;;
71091;SDS011;58751;50.708;7.134;2023-05-15T03:09:26;12.03;;;9.73;;
71091;SDS011;58751;50.708;7.134;2023-05-15T03:11:52;11.70;;;8.37;;
71091;SDS011;58751;50.708;7.134;2023-05-15T03:14:17;13.55;;;10.32;;
71091;SDS011;58751;50.708;7.134;2023-05-15T03:16:43;26.80;;;17.00;;
71091;SDS011;58751;50.708;7.134;2023-05-15T03:19:08;24.73;;;20.70;;
71091;SDS011;58751;50.708;7.134;2023-05-15T03:21:33;44.40;;;28.17;;
71091;SDS011;58751;50.708;7.134;2023-05-15T03:23:58;46.27;;;29.37;;
71091;SDS011;58751;50.708;7.134;2023-05-15T03:26:24;51.20;;;32.83;;
71091;SDS011;58751;50.708;7.134;2023-05-15T03:28:50;48.10;;;32.90;;
71091;SDS011;58751;50.708;7.134;2023-05-15T03:31:15;48.77;;;33.97;;
71091;SDS011;58751;50.708;7.134;2023-05-15T03:33:40;50.00;;;34.13;;
71091;SDS011;58751;50.708;7.134;2023-05-15T03:36:06;48.77;;;33.17;;
71091;SDS011;58751;50.708;7.134;2023-05-15T03:38:31;46.77;;;34.10;;
71091;SDS011;58751;50.708;7.134;2023-05-15T03:40:56;55.40;;;36.47;;
71091;SDS011;58751;50.708;7.134;2023-05-15T03:43:22;50.57;;;34.50;;
71091;SDS011;58751;50.708;7.134;2023-05-15T03:45:48;49.13;;;31.57;;
71091;SDS011;58751;50.708;7.134;2023-05-15T03:48:14;49.97;;;33.07;;
71091;SDS011;58751;50.708;7.134;2023-05-15T03:50:39;45.80;;;31.63;;
71091;SDS011;58751;50.708;7.134;2023-05-15T03:53:04;46.53;;;33.37;;
71091;SDS011;58751;50.708;7.134;2023-05-15T03:55:29;45.83;;;30.73;;
71091;SDS011;58751;50.708;7.134;2023-05-15T03:57:55;45.20;;;30.57;;
71091;SDS011;58751;50.708;7.134;2023-05-15T04:00:20;47.90;;;32.20;;
71091;SDS011;58751;50.708;7.134;2023-05-15T04:02:47;44.17;;;31.77;;
71091;SDS011;58751;50.708;7.134;2023-05-15T04:05:12;48.20;;;33.30;;
71091;SDS011;58751;50.708;7.134;2023-05-15T04:07:37;45.07;;;31.97;;
71091;SDS011;58751;50.708;7.134;2023-05-15T04:10:03;44.77;;;30.40;;
71091;SDS011;58751;50.708;7.134;2023-05-15T04:12:28;43.27;;;31.30;;
71091;SDS011;58751;50.708;7.134;2023-05-15T04:14:54;49.07;;;35.07;;
71091;SDS011;58751;50.708;7.134;2023-05-15T04:17:19;42.40;;;32.13;;
71091;SDS011;58751;50.708;7.134;2023-05-15T04:19:46;42.83;;;31.83;;
71091;SDS011;58751;50.708;7.134;2023-05-15T04:22:11;42.00;;;30.30;;
71091;SDS011;58751;50.708;7.134;2023-05-15T04:24:36;40.23;;;28.90;;
71091;SDS011;58751;50.708;7.134;2023-05-15T04:27:01;46.40;;;32.07;;
71091;SDS011;58751;50.708;7.134;2023-05-15T04:29:27;43.27;;;29.70;;
71091;SDS011;58751;50.708;7.134;2023-05-15T04:31:52;41.97;;;31.57;;
71091;SDS011;58751;50.708;7.134;2023-05-15T04:34:17;40.53;;;29.53;;
71091;SDS011;58751;50.708;7.134;2023-05-15T04:36:43;42.27;;;31.77;;
71091;SDS011;58751;50.708;7.134;2023-05-15T04:39:09;47.05;;;30.63;;
71091;SDS011;58751;50.708;7.134;2023-05-15T04:41:34;43.50;;;30.53;;
71091;SDS011;58751;50.708;7.134;2023-05-15T04:43:59;37.57;;;29.13;;
71091;SDS011;58751;50.708;7.134;2023-05-15T04:46:24;40.03;;;30.17;;
71091;SDS011;58751;50.708;7.134;2023-05-15T04:48:49;42.33;;;30.03;;
71091;SDS011;58751;50.708;7.134;2023-05-15T04:51:15;37.90;;;29.80;;
71091;SDS011;58751;50.708;7.134;2023-05-15T04:53:41;42.43;;;31.37;;
71091;SDS011;58751;50.708;7.134;2023-05-15T04:56:06;38.90;;;27.57;;
71091;SDS011;58751;50.708;7.134;2023-05-15T04:58:32;38.60;;;29.50;;
71091;SDS011;58751;50.708;7.134;2023-05-15T05:00:57;37.53;;;29.30;;
71091;SDS011;58751;50.708;7.134;2023-05-15T05:03:22;33.70;;;27.40;;
71091;SDS011;58751;50.708;7.134;2023-05-15T05:05:47;40.63;;;29.00;;
71091;SDS011;58751;50.708;7.134;2023-05-15T05:08:13;41.37;;;28.60;;
71091;SDS011;58751;50.708;7.134;2023-05-15T05:10:39;37.60;;;28.57;;
71091;SDS011;58751;50.708;7.134;2023-05-15T05:13:04;33.23;;;26.00;;
71091;SDS011;58751;50.708;7.134;2023-05-15T05:15:30;34.90;;;28.60;;
71091;SDS011;58751;50.708;7.134;2023-05-15T05:17:55;35.10;;;28.33;;
71091;SDS011;58751;50.708;7.134;2023-05-15T05:20:20;37.17;;;28.60;;
71091;SDS011;58751;50.708;7.134;2023-05-15T05:22:45;38.77;;;27.33;;
71091;SDS011;58751;50.708;7.134;2023-05-15T05:25:10;36.27;;;28.60;;
71091;SDS011;58751;50.708;7.134;2023-05-15T05:27:37;31.63;;;26.83;;
71091;SDS011;58751;50.708;7.134;2023-05-15T05:30:02;33.27;;;27.57;;
71091;SDS011;58751;50.708;7.134;2023-05-15T05:32:28;39.27;;;28.70;;
71091;SDS011;58751;50.708;7.134;2023-05-15T05:34:53;39.17;;;30.80;;
71091;SDS011;58751;50.708;7.134;2023-05-15T05:37:18;42.33;;;31.43;;
71091;SDS011;58751;50.708;7.134;2023-05-15T05:39:43;41.17;;;30.17;;
71091;SDS011;58751;50.708;7.134;2023-05-15T05:42:08;38.00;;;31.27;;
71091;SDS011;58751;50.708;7.134;2023-05-15T05:44:35;44.67;;;30.60;;
71091;SDS011;58751;50.708;7.134;2023-05-15T05:47:00;40.53;;;29.80;;
71091;SDS011;58751;50.708;7.134;2023-05-15T05:49:25;41.23;;;30.73;;
71091;SDS011;58751;50.708;7.134;2023-05-15T05:51:51;40.13;;;31.80;;
71091;SDS011;58751;50.708;7.134;2023-05-15T05:54:16;42.97;;;31.77;;
71091;SDS011;58751;50.708;7.134;2023-05-15T05:56:41;38.43;;;29.60;;
71091;SDS011;58751;50.708;7.134;2023-05-15T05:59:07;40.37;;;29.77;;
71091;SDS011;58751;50.708;7.134;2023-05-15T06:01:33;41.30;;;29.83;;
71091;SDS011;58751;50.708;7.134;2023-05-15T06:03:59;37.53;;;28.57;;
71091;SDS011;58751;50.708;7.134;2023-05-15T06:06:24;40.80;;;31.00;;
71091;SDS011;58751;50.708;7.134;2023-05-15T06:08:49;42.10;;;33.60;;
71091;SDS011;58751;50.708;7.134;2023-05-15T06:11:14;37.80;;;29.17;;
71091;SDS011;58751;50.708;7.134;2023-05-15T06:13:39;40.37;;;29.87;;
71091;SDS011;58751;50.708;7.134;2023-05-15T06:16:05;36.60;;;29.07;;
71091;SDS011;58751;50.708;7.134;2023-05-15T06:18:31;39.27;;;29.40;;
71091;SDS011;58751;50.708;7.134;2023-05-15T06:20:57;41.40;;;31.70;;
71091;SDS011;58751;50.708;7.134;2023-05-15T06:23:22;37.50;;;28.97;;
71091;SDS011;58751;50.708;7.134;2023-05-15T06:25:47;38.17;;;29.53;;
71091;SDS011;58751;50.708;7.134;2023-05-15T06:28:12;37.57;;;29.77;;
71091;SDS011;58751;50.708;7.134;2023-05-15T06:30:37;37.77;;;29.90;;
71091;SDS011;58751;50.708;7.134;2023-05-15T06:33:03;34.93;;;28.97;;
71091;SDS011;58751;50.708;7.134;2023-05-15T06:35:29;35.90;;;29.20;;
71091;SDS011;58751;50.708;7.134;2023-05-15T06:37:54;38.63;;;28.67;;
71091;SDS011;58751;50.708;7.134;2023-05-15T06:40:20;36.97;;;29.67;;
71091;SDS011;58751;50.708;7.134;2023-05-15T06:42:45;38.83;;;30.57;;
71091;SDS011;58751;50.708;7.134;2023-05-15T06:45:10;42.20;;;30.70;;
71091;SDS011;58751;50.708;7.134;2023-05-15T06:47:35;34.70;;;29.07;;
71091;SDS011;58751;50.708;7.134;2023-05-15T06:50:00;42.17;;;29.80;;
71091;SDS011;58751;50.708;7.134;2023-05-15T06:52:27;38.20;;;28.73;;
71091;SDS011;58751;50.708;7.134;2023-05-15T06:54:52;40.63;;;31.20;;
71091;SDS011;58751;50.708;7.134;2023-05-15T06:57:17;38.53;;;31.03;;
71091;SDS011;58751;50.708;7.134;2023-05-15T06:59:43;37.67;;;30.30;;
71091;SDS011;58751;50.708;7.134;2023-05-15T07:02:08;38.80;;;28.40;;
71091;SDS011;58751;50.708;7.134;2023-05-15T07:04:33;37.90;;;29.97;;
71091;SDS011;58751;50.708;7.134;2023-05-15T07:06:58;38.50;;;29.53;;
71091;SDS011;58751;50.708;7.134;2023-05-15T07:09:25;38.47;;;29.57;;
71091;SDS011;58751;50.708;7.134;2023-05-15T07:11:50;33.77;;;27.90;;
71091;SDS011;58751;50.708;7.134;2023-05-15T07:14:15;32.87;;;27.03;;
71091;SDS011;58751;50.708;7.134;2023-05-15T07:16:41;32.53;;;26.00;;
71091;SDS011;58751;50.708;7.134;2023-05-15T07:19:06;32.77;;;28.13;;
71091;SDS011;58751;50.708;7.134;2023-05-15T07:21:32;43.43;;;28.97;;
71091;SDS011;58751;50.708;7.134;2023-05-15T07:23:57;43.80;;;31.00;;
71091;SDS011;58751;50.708;7.134;2023-05-15T07:26:23;43.00;;;32.47;;
71091;SDS011;58751;50.708;7.134;2023-05-15T07:28:49;40.37;;;30.57;;
71091;SDS011;58751;50.708;7.134;2023-05-15T07:31:14;44.50;;;31.40;;
71091;SDS011;58751;50.708;7.134;2023-05-15T07:33:39;36.97;;;29.10;;
71091;SDS011;58751;50.708;7.134;2023-05-15T07:36:05;40.73;;;26.60;;
71091;SDS011;58751;50.708;7.134;2023-05-15T07:38:30;28.93;;;25.57;;
71091;SDS011;58751;50.708;7.134;2023-05-15T07:40:55;34.70;;;24.60;;
71091;SDS011;58751;50.708;7.134;2023-05-15T07:43:22;33.33;;;25.57;;
71091;SDS011;58751;50.708;7.134;2023-05-15T07:45:47;31.97;;;26.87;;
71091;SDS011;58751;50.708;7.134;2023-05-15T07:48:12;31.57;;;25.63;;
71091;SDS011;58751;50.708;7.134;2023-05-15T07:50:38;28.30;;;24.43;;
71091;SDS011;58751;50.708;7.134;2023-05-15T07:53:03;33.90;;;27.00;;
71091;SDS011;58751;50.708;7.134;2023-05-15T07:55:28;29.10;;;26.00;;
71091;SDS011;58751;50.708;7.134;2023-05-15T07:57:53;32.30;;;27.80;;
71091;SDS011;58751;50.708;7.134;2023-05-15T08:00:20;28.00;;;24.93;;
71091;SDS011;58751;50.708;7.134;2023-05-15T08:02:45;32.03;;;25.60;;
71091;SDS011;58751;50.708;7.134;2023-05-15T08:05:11;32.33;;;27.00;;
71091;SDS011;58751;50.708;7.134;2023-05-15T08:07:36;33.77;;;27.53;;
71091;SDS011;58751;50.708;7.134;2023-05-15T08:10:01;39.47;;;30.33;;
71091;SDS011;58751;50.708;7.134;2023-05-15T08:12:26;35.17;;;28.63;;
71091;SDS011;58751;50.708;7.134;2023-05-15T08:14:52;36.90;;;29.40;;
71091;SDS011;58751;50.708;7.134;2023-05-15T08:17:19;36.03;;;29.87;;
71091;SDS011;58751;50.708;7.134;2023-05-15T08:19:45;45.20;;;32.20;;
71091;SDS011;58751;50.708;7.134;2023-05-15T08:22:10;36.90;;;29.60;;
71091;SDS011;58751;50.708;7.134;2023-05-15T08:24:35;40.63;;;31.40;;
71091;SDS011;58751;50.708;7.134;2023-05-15T08:27:00;38.00;;;31.67;;
71091;SDS011;58751;50.708;7.134;2023-05-15T08:29:26;38.50;;;31.10;;
71091;SDS011;58751;50.708;7.134;2023-05-15T08:31:51;40.00;;;31.30;;
71091;SDS011;58751;50.708;7.134;2023-05-15T08:34:18;45.77;;;35.83;;
71091;SDS011;58751;50.708;7.134;2023-05-15T08:36:43;39.67;;;32.30;;
71091;SDS011;58751;50.708;7.134;2023-05-15T08:39:08;38.60;;;31.97;;
71091;SDS011;58751;50.708;7.134;2023-05-15T08:41:35;39.67;;;33.97;;
71091;SDS011;58751;50.708;7.134;2023-05-15T08:44:02;39.07;;;30.00;;
71091;SDS011;58751;50.708;7.134;2023-05-15T08:46:27;39.83;;;32.03;;
71091;SDS011;58751;50.708;7.134;2023-05-15T08:48:53;44.97;;;32.50;;
71091;SDS011;58751;50.708;7.134;2023-05-15T08:51:19;38.70;;;31.97;;
71091;SDS011;58751;50.708;7.134;2023-05-15T08:53:45;37.13;;;32.07;;
71091;SDS011;58751;50.708;7.134;2023-05-15T08:56:10;38.13;;;31.50;;
71091;SDS011;58751;50.708;7.134;2023-05-15T08:58:35;43.17;;;31.23;;
71091;SDS011;58751;50.708;7.134;2023-05-15T09:01:01;38.77;;;33.00;;
71091;SDS011;58751;50.708;7.134;2023-05-15T09:03:27;38.17;;;31.70;;
71091;SDS011;58751;50.708;7.134;2023-05-15T09:05:52;42.10;;;33.30;;
71091;SDS011;58751;50.708;7.134;2023-05-15T09:08:20;37.80;;;30.60;;
71091;SDS011;58751;50.708;7.134;2023-05-15T09:10:46;41.33;;;32.40;;
71091;SDS011;58751;50.708;7.134;2023-05-15T09:13:12;36.77;;;30.63;;
71091;SDS011;58751;50.708;7.134;2023-05-15T09:15:38;39.33;;;31.50;;
71091;SDS011;58751;50.708;7.134;2023-05-15T09:18:04;36.27;;;31.83;;
71091;SDS011;58751;50.708;7.134;2023-05-15T09:20:30;38.40;;;31.97;;
71091;SDS011;58751;50.708;7.134;2023-05-15T09:22:55;33.07;;;28.00;;
71091;SDS011;58751;50.708;7.134;2023-05-15T09:25:32;40.17;;;29.33;;
71091;SDS011;58751;50.708;7.134;2023-05-15T09:27:58;36.50;;;30.37;;
71091;SDS011;58751;50.708;7.134;2023-05-15T09:30:23;37.00;;;29.87;;
71091;SDS011;58751;50.708;7.134;2023-05-15T09:32:50;33.87;;;28.50;;
71091;SDS011;58751;50.708;7.134;2023-05-15T09:35:30;35.80;;;29.63;;
71091;SDS011;58751;50.708;7.134;2023-05-15T09:37:56;33.93;;;30.27;;
71091;SDS011;58751;50.708;7.134;2023-05-15T09:40:21;33.10;;;28.70;;
71091;SDS011;58751;50.708;7.134;2023-05-15T09:42:51;29.00;;;25.73;;
71091;SDS011;58751;50.708;7.134;2023-05-15T09:45:16;30.37;;;27.10;;
71091;SDS011;58751;50.708;7.134;2023-05-15T09:47:42;32.33;;;28.50;;
71091;SDS011;58751;50.708;7.134;2023-05-15T09:50:07;32.53;;;29.03;;
71091;SDS011;58751;50.708;7.134;2023-05-15T09:52:33;30.20;;;26.87;;
71091;SDS011;58751;50.708;7.134;2023-05-15T09:54:58;30.27;;;25.40;;
71091;SDS011;58751;50.708;7.134;2023-05-15T09:57:23;29.00;;;26.13;;
71091;SDS011;58751;50.708;7.134;2023-05-15T09:59:50;30.67;;;26.03;;
71091;SDS011;58751;50.708;7.134;2023-05-15T10:02:21;27.90;;;25.00;;
71091;SDS011;58751;50.708;7.134;2023-05-15T10:04:49;27.30;;;24.40;;
71091;SDS011;58751;50.708;7.134;2023-05-15T10:07:19;25.30;;;22.70;;
71091;SDS011;58751;50.708;7.134;2023-05-15T10:09:50;27.53;;;24.53;;
71091;SDS011;58751;50.708;7.134;2023-05-15T10:12:16;25.73;;;23.13;;
71091;SDS011;58751;50.708;7.134;2023-05-15T10:14:41;27.97;;;25.30;;
71091;SDS011;58751;50.708;7.134;2023-05-15T10:17:08;29.17;;;26.40;;
71091;SDS011;58751;50.708;7.134;2023-05-15T10:19:33;31.53;;;28.63;;
71091;SDS011;58751;50.708;7.134;2023-05-15T10:21:59;31.60;;;28.27;;
71091;SDS011;58751;50.708;7.134;2023-05-15T10:24:24;28.00;;;25.40;;
71091;SDS011;58751;50.708;7.134;2023-05-15T10:26:52;30.33;;;27.13;;
71091;SDS011;58751;50.708;7.134;2023-05-15T10:29:19;29.87;;;27.10;;
71091;SDS011;58751;50.708;7.134;2023-05-15T10:31:45;29.33;;;26.60;;
71091;SDS011;58751;50.708;7.134;2023-05-15T10:34:13;32.57;;;29.47;;
71091;SDS011;58751;50.708;7.134;2023-05-15T10:36:39;29.93;;;26.67;;
71091;SDS011;58751;50.708;7.134;2023-05-15T10:39:06;31.70;;;28.63;;
71091;SDS011;58751;50.708;7.134;2023-05-15T10:41:31;32.20;;;29.33;;
71091;SDS011;58751;50.708;7.134;2023-05-15T10:43:57;29.30;;;26.40;;
71091;SDS011;58751;50.708;7.134;2023-05-15T10:46:22;30.90;;;27.70;;
71091;SDS011;58751;50.708;7.134;2023-05-15T10:48:48;33.73;;;30.23;;
71091;SDS011;58751;50.708;7.134;2023-05-15T10:51:16;33.53;;;30.37;;
71091;SDS011;58751;50.708;7.134;2023-05-15T10:53:42;30.93;;;27.83;;
71091;SDS011;58751;50.708;7.134;2023-05-15T10:56:10;29.13;;;26.20;;
71091;SDS011;58751;50.708;7.134;2023-05-15T10:58:36;35.57;;;32.07;;
71091;SDS011;58751;50.708;7.134;2023-05-15T11:01:01;33.47;;;29.97;;
71091;SDS011;58751;50.708;7.134;2023-05-15T11:03:35;31.53;;;28.53;;
71091;SDS011;58751;50.708;7.134;2023-05-15T11:06:07;33.57;;;30.23;;
71091;SDS011;58751;50.708;7.134;2023-05-15T11:08:34;31.47;;;28.23;;
71091;SDS011;58751;50.708;7.134;2023-05-15T11:10:59;31.23;;;28.30;;
71091;SDS011;58751;50.708;7.134;2023-05-15T11:13:24;30.90;;;28.10;;
71091;SDS011;58751;50.708;7.134;2023-05-15T11:15:49;29.97;;;26.90;;
71091;SDS011;58751;50.708;7.134;2023-05-15T11:18:15;27.67;;;24.97;;
71091;SDS011;58751;50.708;7.134;2023-05-15T11:20:41;27.20;;;24.80;;
71091;SDS011;58751;50.708;7.134;2023-05-15T11:23:06;30.70;;;28.00;;
71091;SDS011;58751;50.708;7.134;2023-05-15T11:25:34;27.87;;;25.37;;
71091;SDS011;58751;50.708;7.134;2023-05-15T11:28:00;29.13;;;26.43;;
71091;SDS011;58751;50.708;7.134;2023-05-15T11:30:36;27.83;;;25.33;;
71091;SDS011;58751;50.708;7.134;2023-05-15T11:33:03;24.90;;;22.50;;
71091;SDS011;58751;50.708;7.134;2023-05-15T11:35:29;21.60;;;19.90;;
71091;SDS011;58751;50.708;7.134;2023-05-15T11:37:55;23.20;;;21.30;;
71091;SDS011;58751;50.708;7.134;2023-05-15T11:40:21;22.30;;;20.20;;
71091;SDS011;58751;50.708;7.134;2023-05-15T11:45:30;22.10;;;20.00;;
71091;SDS011;58751;50.708;7.134;2023-05-15T11:47:56;21.77;;;19.87;;
71091;SDS011;58751;50.708;7.134;2023-05-15T11:50:21;23.53;;;21.53;;
71091;SDS011;58751;50.708;7.134;2023-05-15T11:52:47;20.70;;;18.90;;
71091;SDS011;58751;50.708;7.134;2023-05-15T11:55:13;21.80;;;20.00;;
71091;SDS011;58751;50.708;7.134;2023-05-15T11:57:39;19.63;;;17.80;;
71091;SDS011;58751;50.708;7.134;2023-05-15T12:00:05;17.47;;;16.07;;
71091;SDS011;58751;50.708;7.134;2023-05-15T12:02:31;17.70;;;16.07;;
71091;SDS011;58751;50.708;7.134;2023-05-15T12:04:56;16.20;;;14.70;;
71091;SDS011;58751;50.708;7.134;2023-05-15T12:07:22;16.43;;;14.83;;
71091;SDS011;58751;50.708;7.134;2023-05-15T12:09:48;16.50;;;14.90;;
71091;SDS011;58751;50.708;7.134;2023-05-15T12:12:14;14.87;;;13.57;;
71091;SDS011;58751;50.708;7.134;2023-05-15T12:14:39;16.80;;;13.20;;
71091;SDS011;58751;50.708;7.134;2023-05-15T12:17:04;13.40;;;12.10;;
71091;SDS011;58751;50.708;7.134;2023-05-15T12:19:31;14.13;;;12.83;;
71091;SDS011;58751;50.708;7.134;2023-05-15T12:21:57;13.80;;;12.50;;
71091;SDS011;58751;50.708;7.134;2023-05-15T12:24:23;14.23;;;13.13;;
71091;SDS011;58751;50.708;7.134;2023-05-15T12:26:48;14.53;;;13.23;;
71091;SDS011;58751;50.708;7.134;2023-05-15T12:29:13;15.30;;;13.87;;
71091;SDS011;58751;50.708;7.134;2023-05-15T12:31:38;14.43;;;13.20;;
71091;SDS011;58751;50.708;7.134;2023-05-15T12:34:04;16.30;;;14.70;;
71091;SDS011;58751;50.708;7.134;2023-05-15T12:36:30;18.23;;;13.50;;
71091;SDS011;58751;50.708;7.134;2023-05-15T12:38:56;11.83;;;10.90;;
71091;SDS011;58751;50.708;7.134;2023-05-15T12:41:21;12.30;;;10.87;;
71091;SDS011;58751;50.708;7.134;2023-05-15T12:43:50;10.60;;;9.70;;
71091;SDS011;58751;50.708;7.134;2023-05-15T12:46:15;8.43;;;7.80;;
71091;SDS011;58751;50.708;7.134;2023-05-15T12:48:45;9.83;;;9.03;;
71091;SDS011;58751;50.708;7.134;2023-05-15T12:51:11;10.37;;;9.27;;
71091;SDS011;58751;50.708;7.134;2023-05-15T12:53:41;11.27;;;10.23;;
71091;SDS011;58751;50.708;7.134;2023-05-15T12:56:06;14.17;;;12.90;;
71091;SDS011;58751;50.708;7.134;2023-05-15T12:58:32;9.57;;;8.80;;
71091;SDS011;58751;50.708;7.134;2023-05-15T13:00:57;9.13;;;8.33;;
71091;SDS011;58751;50.708;7.134;2023-05-15T13:03:23;8.30;;;7.70;;
71091;SDS011;58751;50.708;7.134;2023-05-15T13:05:48;13.70;;;12.50;;
71091;SDS011;58751;50.708;7.134;2023-05-15T13:08:14;13.43;;;12.43;;
71091;SDS011;58751;50.708;7.134;2023-05-15T13:10:40;11.07;;;10.17;;
71091;SDS011;58751;50.708;7.134;2023-05-15T13:13:05;15.13;;;13.80;;
71091;SDS011;58751;50.708;7.134;2023-05-15T13:15:31;14.70;;;13.40;;
71091;SDS011;58751;50.708;7.134;2023-05-15T13:17:59;11.30;;;10.23;;
71091;SDS011;58751;50.708;7.134;2023-05-15T13:20:26;7.90;;;7.40;;
71091;SDS011;58751;50.708;7.134;2023-05-15T13:22:51;9.60;;;8.70;;
71091;SDS011;58751;50.708;7.134;2023-05-15T13:25:17;9.73;;;8.70;;
71091;SDS011;58751;50.708;7.134;2023-05-15T13:27:43;10.77;;;9.67;;
71091;SDS011;58751;50.708;7.134;2023-05-15T13:30:09;10.10;;;9.30;;
71091;SDS011;58751;50.708;7.134;2023-05-15T13:32:34;11.40;;;10.50;;
71091;SDS011;58751;50.708;7.134;2023-05-15T13:34:59;10.67;;;9.40;;
71091;SDS011;58751;50.708;7.134;2023-05-15T13:37:24;10.90;;;9.83;;
71091;SDS011;58751;50.708;7.134;2023-05-15T13:39:50;9.17;;;8.43;;
71091;SDS011;58751;50.708;7.134;2023-05-15T13:42:15;9.63;;;8.73;;
71091;SDS011;58751;50.708;7.134;2023-05-15T13:44:41;13.10;;;11.90;;
71091;SDS011;58751;50.708;7.134;2023-05-15T13:47:07;12.90;;;11.80;;
71091;SDS011;58751;50.708;7.134;2023-05-15T13:49:32;14.27;;;12.53;;
71091;SDS011;58751;50.708;7.134;2023-05-15T13:51:57;13.40;;;12.27;;
71091;SDS011;58751;50.708;7.134;2023-05-15T13:54:22;12.20;;;10.80;;
71091;SDS011;58751;50.708;7.134;2023-05-15T13:56:47;11.87;;;10.77;;
71091;SDS011;58751;50.708;7.134;2023-05-15T13:59:13;11.40;;;10.40;;
71091;SDS011;58751;50.708;7.134;2023-05-15T14:01:39;14.13;;;12.70;;
71091;SDS011;58751;50.708;7.134;2023-05-15T14:04:04;14.70;;;13.50;;
71091;SDS011;58751;50.708;7.134;2023-05-15T14:06:30;15.37;;;13.83;;
71091;SDS011;58751;50.708;7.134;2023-05-15T14:08:55;13.60;;;12.30;;
71091;SDS011;58751;50.708;7.134;2023-05-15T14:11:20;13.40;;;12.20;;
71091;SDS011;58751;50.708;7.134;2023-05-15T14:13:45;13.00;;;11.80;;
71091;SDS011;58751;50.708;7.134;2023-05-15T14:16:10;12.90;;;11.80;;
71091;SDS011;58751;50.708;7.134;2023-05-15T14:18:37;14.60;;;12.97;;
71091;SDS011;58751;50.708;7.134;2023-05-15T14:21:02;13.40;;;12.00;;
71091;SDS011;58751;50.708;7.134;2023-05-15T14:23:27;13.03;;;11.93;;
71091;SDS011;58751;50.708;7.134;2023-05-15T14:25:53;13.97;;;12.67;;